createdAt,value
2023-04-28T00:00:23.247Z,2.50
2023-04-28T00:03:28.875Z,3.00
2023-04-28T00:06:34.916Z,2.75
2023-04-28T00:09:40.450Z,2.65
2023-04-28T00:12:45.834Z,2.78
2023-04-28T00:15:53.321Z,2.55
2023-04-28T00:18:59.273Z,2.83
2023-04-28T00:22:05.304Z,2.45
2023-04-28T00:25:11.048Z,2.70
2023-04-28T00:28:30.554Z,3.38
2023-04-28T00:31:40.174Z,3.10
2023-04-28T00:34:45.687Z,2.55
2023-04-28T00:37:51.906Z,2.72
2023-04-28T00:40:57.520Z,2.58
2023-04-28T00:44:02.964Z,2.72
2023-04-28T00:47:10.370Z,2.88
2023-04-28T00:50:16.983Z,2.60
2023-04-28T00:53:22.786Z,2.80
2023-04-28T00:56:31.706Z,2.83
2023-04-28T00:59:37.328Z,2.90
2023-04-28T01:02:43.306Z,2.33
2023-04-28T01:05:49.634Z,3.22
2023-04-28T01:08:56.515Z,4.00
2023-04-28T01:12:02.453Z,2.95
2023-04-28T01:15:22.691Z,3.45
2023-04-28T01:18:32.794Z,2.80
2023-04-28T01:21:38.546Z,2.85
2023-04-28T01:24:54.735Z,3.10
2023-04-28T01:28:01.850Z,3.42
2023-04-28T01:31:07.538Z,3.08
2023-04-28T01:34:13.186Z,3.67
2023-04-28T01:37:18.754Z,3.80
2023-04-28T01:40:24.940Z,3.30
2023-04-28T01:43:30.807Z,3.40
2023-04-28T01:46:37.407Z,3.30
2023-04-28T01:49:42.493Z,3.15
2023-04-28T01:52:47.884Z,3.65
2023-04-28T01:55:54.379Z,4.30
2023-04-28T01:58:59.816Z,4.47
2023-04-28T02:02:05.573Z,4.20
2023-04-28T02:05:12.429Z,4.47
2023-04-28T02:08:19.121Z,4.72
2023-04-28T02:11:24.552Z,4.47
2023-04-28T02:14:34.931Z,4.40
2023-04-28T02:17:40.805Z,5.10
2023-04-28T02:20:46.648Z,4.57
2023-04-28T02:23:52.218Z,4.95
2023-04-28T02:26:57.735Z,4.60
2023-04-28T02:30:06.920Z,4.95
2023-04-28T02:33:12.931Z,4.35
2023-04-28T02:36:18.720Z,4.13
2023-04-28T02:39:27.329Z,4.82
2023-04-28T02:42:35.751Z,6.00
2023-04-28T02:45:41.156Z,4.75
2023-04-28T02:48:46.570Z,4.88
2023-04-28T02:51:52.446Z,4.75
2023-04-28T02:54:58.154Z,4.68
2023-04-28T02:58:04.553Z,5.88
2023-04-28T03:01:10.130Z,4.78
2023-04-28T03:04:17.160Z,4.63
2023-04-28T03:07:23.754Z,4.63
2023-04-28T03:10:29.332Z,5.75
2023-04-28T03:13:36.609Z,4.70
2023-04-28T03:16:43.279Z,4.88
2023-04-28T03:19:48.940Z,4.60
2023-04-28T03:22:54.860Z,4.53
2023-04-28T03:26:00.842Z,4.95
2023-04-28T03:29:07.971Z,3.83
2023-04-28T03:32:14.155Z,4.47
2023-04-28T03:35:20.006Z,4.70
2023-04-28T03:38:26.306Z,4.40
2023-04-28T03:41:32.271Z,4.43
2023-04-28T03:44:59.138Z,4.78
2023-04-28T03:48:04.865Z,4.57
2023-04-28T03:51:10.202Z,5.65
2023-04-28T03:54:16.006Z,5.20
2023-04-28T03:57:21.749Z,5.72
2023-04-28T04:00:27.352Z,6.03
2023-04-28T04:03:33.706Z,6.45
2023-04-28T04:06:39.556Z,5.05
2023-04-28T04:09:45.181Z,5.72
2023-04-28T04:12:50.740Z,4.68
2023-04-28T04:15:57.175Z,3.88
2023-04-28T04:19:03.700Z,5.07
2023-04-28T04:22:23.370Z,5.63
2023-04-28T04:25:29.176Z,5.68
2023-04-28T04:28:34.895Z,5.47
2023-04-28T04:31:41.224Z,5.93
2023-04-28T04:34:47.198Z,5.85
2023-04-28T04:37:53.883Z,5.05
2023-04-28T04:40:59.787Z,5.63
2023-04-28T04:44:06.176Z,6.65
2023-04-28T04:47:18.133Z,7.47
2023-04-28T04:50:24.818Z,6.47
2023-04-28T04:53:30.747Z,7.05
2023-04-28T04:56:36.925Z,5.97
2023-04-28T04:59:43.725Z,6.45
2023-04-28T05:02:54.168Z,7.47
2023-04-28T05:06:00.114Z,6.43
2023-04-28T05:09:18.499Z,6.78
2023-04-28T05:12:23.953Z,6.63
2023-04-28T05:15:29.814Z,7.18
2023-04-28T05:19:01.882Z,8.00
2023-04-28T05:22:08.268Z,7.45
2023-04-28T05:25:16.693Z,7.82
2023-04-28T05:28:22.993Z,5.30
2023-04-28T05:31:32.850Z,6.70
2023-04-28T05:34:38.448Z,7.10
2023-04-28T05:37:45.288Z,7.20
2023-04-28T05:40:51.421Z,7.38
2023-04-28T05:43:57.107Z,8.05
2023-04-28T05:47:03.062Z,7.70
2023-04-28T05:50:09.523Z,7.05
2023-04-28T05:53:15.291Z,7.05
2023-04-28T05:56:21.404Z,7.22
2023-04-28T05:59:28.833Z,6.70
2023-04-28T06:02:36.577Z,6.70
2023-04-28T06:05:42.514Z,6.13
2023-04-28T06:08:48.636Z,8.32
2023-04-28T06:11:53.864Z,5.97
2023-04-28T06:14:59.260Z,7.50
2023-04-28T06:18:07.799Z,7.50
2023-04-28T06:21:13.169Z,7.78
2023-04-28T06:24:18.665Z,6.93
2023-04-28T06:27:26.201Z,6.95
2023-04-28T06:30:32.284Z,7.82
2023-04-28T06:33:38.550Z,6.93
2023-04-28T06:36:45.099Z,7.57
2023-04-28T06:39:50.466Z,8.25
2023-04-28T06:42:55.898Z,7.30
2023-04-28T06:46:13.787Z,8.45
2023-04-28T06:49:21.931Z,7.18
2023-04-28T06:52:38.511Z,7.38
2023-04-28T06:55:44.740Z,7.82
2023-04-28T06:58:51.185Z,6.97
2023-04-28T07:01:57.360Z,8.55
2023-04-28T07:05:04.038Z,7.07
2023-04-28T07:08:09.729Z,7.65
2023-04-28T07:11:16.810Z,6.50
2023-04-28T07:14:22.746Z,7.18
2023-04-28T07:17:28.572Z,7.45
2023-04-28T07:20:33.989Z,7.43
2023-04-28T07:23:40.941Z,7.72
2023-04-28T07:26:46.823Z,6.88
2023-04-28T07:29:52.528Z,6.07
2023-04-28T07:32:58.784Z,6.55
2023-04-28T07:36:04.908Z,6.13
2023-04-28T07:39:10.383Z,5.85
2023-04-28T07:42:16.119Z,5.30
2023-04-28T07:45:21.972Z,6.00
2023-04-28T07:48:27.694Z,3.35
2023-04-28T07:51:34.052Z,4.32
2023-04-28T07:54:39.896Z,3.60
2023-04-28T07:57:45.836Z,3.75
2023-04-28T08:00:51.314Z,3.40
2023-04-28T08:03:56.874Z,2.28
2023-04-28T08:07:02.906Z,3.42
2023-04-28T08:10:10.157Z,3.55
2023-04-28T08:13:16.912Z,3.92
2023-04-28T08:16:23.547Z,3.70
2023-04-28T08:19:28.842Z,3.55
2023-04-28T08:22:34.376Z,3.65
2023-04-28T08:25:39.817Z,4.43
2023-04-28T08:28:45.359Z,4.43
2023-04-28T08:31:50.956Z,4.15
2023-04-28T08:34:56.712Z,4.57
2023-04-28T08:38:02.497Z,3.33
2023-04-28T08:41:07.718Z,3.55
2023-04-28T08:44:13.342Z,4.03
2023-04-28T08:47:22.405Z,3.65
2023-04-28T08:50:31.918Z,3.90
2023-04-28T08:54:06.143Z,3.53
2023-04-28T08:57:05.832Z,4.53
2023-04-28T09:00:12.571Z,3.05
2023-04-28T09:03:18.738Z,2.35
2023-04-28T09:06:24.490Z,1.92
2023-04-28T09:09:34.742Z,2.60
2023-04-28T09:12:42.834Z,3.58
2023-04-28T09:15:48.807Z,2.80
2023-04-28T09:19:01.319Z,2.42
2023-04-28T09:22:17.465Z,2.63
2023-04-28T09:25:29.911Z,2.58
2023-04-28T09:28:36.821Z,3.15
2023-04-28T09:31:44.025Z,2.67
2023-04-28T09:34:52.309Z,2.78
2023-04-28T09:40:58.845Z,2.50
2023-04-28T09:44:24.147Z,2.08
2023-04-28T09:47:30.293Z,2.10
2023-04-28T09:50:42.107Z,1.83
2023-04-28T09:53:47.727Z,1.40
2023-04-28T09:56:55.156Z,2.22
2023-04-28T10:00:02.488Z,1.70
2023-04-28T10:03:11.557Z,1.67
2023-04-28T10:06:17.580Z,1.73
2023-04-28T10:09:27.760Z,2.38
2023-04-28T10:12:34.030Z,2.10
2023-04-28T10:15:39.855Z,2.35
2023-04-28T10:18:46.586Z,2.70
2023-04-28T10:22:24.180Z,2.58
2023-04-28T10:25:35.468Z,1.80
2023-04-28T10:28:52.313Z,2.67
2023-04-28T10:32:26.501Z,2.90
2023-04-28T10:35:32.507Z,2.17
2023-04-28T10:39:18.631Z,2.40
2023-04-28T10:42:53.010Z,2.70
2023-04-28T10:46:01.912Z,2.97
2023-04-28T10:49:07.543Z,2.80
2023-04-28T10:52:41.188Z,3.25
2023-04-28T10:56:06.957Z,3.15
2023-04-28T10:59:28.919Z,2.80
2023-04-28T11:02:44.434Z,2.33
2023-04-28T11:06:26.682Z,2.72
2023-04-28T11:09:32.398Z,2.08
2023-04-28T11:13:16.031Z,2.47
2023-04-28T11:16:24.528Z,2.60
2023-04-28T11:19:34.192Z,2.40
2023-04-28T11:22:40.921Z,3.25
2023-04-28T11:25:57.175Z,2.90
2023-04-28T11:29:02.427Z,4.25
2023-04-28T11:32:10.002Z,3.00
2023-04-28T11:35:15.379Z,2.60
2023-04-28T11:38:21.228Z,3.00
2023-04-28T11:41:26.888Z,2.67
2023-04-28T11:44:33.216Z,2.47
2023-04-28T11:47:38.673Z,3.55
2023-04-28T11:50:45.594Z,3.85
2023-04-28T11:53:50.989Z,3.00
2023-04-28T11:56:58.452Z,2.95
2023-04-28T12:00:15.293Z,3.33
2023-04-28T12:03:21.351Z,4.22
2023-04-28T12:06:27.094Z,4.78
2023-04-28T12:09:34.358Z,4.15
2023-04-28T12:12:49.940Z,5.22
2023-04-28T12:15:59.398Z,4.63
2023-04-28T12:19:08.190Z,5.00
2023-04-28T12:22:13.611Z,5.18
2023-04-28T12:25:20.413Z,4.45
2023-04-28T12:28:41.113Z,4.72
2023-04-28T12:31:53.451Z,5.25
2023-04-28T12:34:59.560Z,4.95
2023-04-28T12:38:05.514Z,5.38
2023-04-28T12:41:11.980Z,5.22
2023-04-28T12:44:17.679Z,5.07
2023-04-28T12:47:23.789Z,6.25
2023-04-28T12:50:33.223Z,5.70
2023-04-28T12:53:38.952Z,6.93
2023-04-28T12:56:44.959Z,5.85
2023-04-28T12:59:52.765Z,6.85
2023-04-28T13:02:59.151Z,6.38
2023-04-28T13:06:05.534Z,6.70
2023-04-28T13:09:12.543Z,6.10
2023-04-28T13:12:18.368Z,6.18
2023-04-28T13:15:24.107Z,5.68
2023-04-28T13:18:30.410Z,6.60
2023-04-28T13:21:36.640Z,7.70
2023-04-28T13:24:44.365Z,6.63
2023-04-28T13:27:50.162Z,7.15
2023-04-28T13:30:56.347Z,6.13
2023-04-28T13:34:02.474Z,6.60
2023-04-28T13:37:08.186Z,8.50
2023-04-28T13:40:13.975Z,7.50
2023-04-28T13:43:19.608Z,7.75
2023-04-28T13:46:25.331Z,7.47
2023-04-28T13:49:30.626Z,7.50
2023-04-28T13:52:38.346Z,7.20
2023-04-28T13:55:44.093Z,7.43
2023-04-28T13:58:49.533Z,7.57
2023-04-28T14:01:54.780Z,7.57
2023-04-28T14:05:00.419Z,7.30
2023-04-28T14:08:06.527Z,7.20
2023-04-28T14:11:12.407Z,6.88
2023-04-28T14:14:18.525Z,7.13
2023-04-28T14:17:24.093Z,7.97
2023-04-28T14:20:29.613Z,8.57
2023-04-28T14:23:38.073Z,7.43
2023-04-28T14:26:44.209Z,9.25
2023-04-28T14:29:49.827Z,8.93
2023-04-28T14:32:55.362Z,8.07
2023-04-28T14:36:02.682Z,8.68
2023-04-28T14:39:08.212Z,7.97
2023-04-28T14:42:14.378Z,7.47
2023-04-28T14:45:20.286Z,6.90
2023-04-28T14:48:26.315Z,8.00
2023-04-28T14:51:32.214Z,7.53
2023-04-28T14:54:38.405Z,7.20
2023-04-28T14:57:44.026Z,7.05
2023-04-28T15:00:50.220Z,8.95
2023-04-28T15:03:56.026Z,7.38
2023-04-28T15:07:02.032Z,6.85
2023-04-28T15:10:08.326Z,8.60
2023-04-28T15:13:13.896Z,8.32
2023-04-28T15:16:20.166Z,7.57
2023-04-28T15:19:26.239Z,7.40
2023-04-28T15:22:31.780Z,8.07
2023-04-28T15:25:37.324Z,6.90
2023-04-28T15:28:42.672Z,7.15
2023-04-28T15:31:48.097Z,7.60
2023-04-28T15:34:53.529Z,6.30
2023-04-28T15:38:00.607Z,6.78
2023-04-28T15:41:05.993Z,7.35
2023-04-28T15:44:11.939Z,5.97
2023-04-28T15:47:17.974Z,5.68
2023-04-28T15:50:24.349Z,4.18
2023-04-28T15:53:30.350Z,4.90
2023-04-28T15:56:36.199Z,4.30
2023-04-28T15:59:41.820Z,4.78
2023-04-28T16:02:47.538Z,4.32
2023-04-28T16:05:56.334Z,4.43
2023-04-28T16:09:02.793Z,4.15
2023-04-28T16:12:08.639Z,3.90
2023-04-28T16:15:14.365Z,3.88
2023-04-28T16:18:19.766Z,5.03
2023-04-28T16:21:25.343Z,3.78
2023-04-28T16:24:31.946Z,4.10
2023-04-28T16:27:38.055Z,3.90
2023-04-28T16:30:44.093Z,3.30
2023-04-28T16:33:49.587Z,2.50
2023-04-28T16:36:55.276Z,2.80
2023-04-28T16:40:01.653Z,2.80
2023-04-28T16:43:07.529Z,3.00
2023-04-28T16:46:13.172Z,3.17
2023-04-28T16:49:18.849Z,2.88
2023-04-28T16:52:24.271Z,2.70
2023-04-28T16:55:30.206Z,2.30
2023-04-28T16:58:35.683Z,2.25
2023-04-28T17:01:41.233Z,2.20
2023-04-28T17:04:47.358Z,2.70
2023-04-28T17:07:55.255Z,2.20
2023-04-28T17:11:03.923Z,3.38
2023-04-28T17:14:09.430Z,3.72
2023-04-28T17:17:14.741Z,3.50
2023-04-28T17:20:20.523Z,3.47
2023-04-28T17:23:28.044Z,3.60
2023-04-28T17:26:33.631Z,3.38
2023-04-28T17:29:39.020Z,2.95
2023-04-28T17:32:44.996Z,3.58
2023-04-28T17:35:50.686Z,4.07
2023-04-28T17:38:56.690Z,4.32
2023-04-28T17:42:02.807Z,4.88
2023-04-28T17:45:08.634Z,4.60
2023-04-28T17:48:14.126Z,5.15
2023-04-28T17:51:20.300Z,5.97
2023-04-28T17:54:25.611Z,5.25
2023-04-28T17:57:32.452Z,5.97
2023-04-28T18:00:39.261Z,6.43
2023-04-28T18:03:44.981Z,5.95
2023-04-28T18:06:50.513Z,6.28
2023-04-28T18:09:57.738Z,5.22
2023-04-28T18:13:03.785Z,5.03
2023-04-28T18:16:14.049Z,5.10
2023-04-28T18:19:19.440Z,4.53
2023-04-28T18:22:25.015Z,4.00
2023-04-28T18:25:32.436Z,4.03
2023-04-28T18:28:37.913Z,4.63
2023-04-28T18:31:43.642Z,4.68
2023-04-28T18:34:49.827Z,4.28
2023-04-28T18:37:55.710Z,4.55
2023-04-28T18:41:02.501Z,4.70
2023-04-28T18:44:08.658Z,4.43
2023-04-28T18:47:15.942Z,4.65
2023-04-28T18:50:21.682Z,4.60
2023-04-28T18:53:28.514Z,5.97
2023-04-28T18:56:35.385Z,6.13
2023-04-28T18:59:40.942Z,5.65
2023-04-28T19:02:46.398Z,7.35
2023-04-28T19:05:52.033Z,6.30
2023-04-28T19:08:57.592Z,6.20
2023-04-28T19:12:02.614Z,5.18
2023-04-28T19:15:08.561Z,4.97
2023-04-28T19:18:13.718Z,4.60
2023-04-28T19:21:20.251Z,4.15
2023-04-28T19:24:25.916Z,4.38
2023-04-28T19:27:37.724Z,4.30
2023-04-28T19:30:43.802Z,5.20
2023-04-28T19:33:49.649Z,4.75
2023-04-28T19:36:56.996Z,4.97
2023-04-28T19:40:07.485Z,5.22
2023-04-28T19:43:14.571Z,5.10
2023-04-28T19:46:20.506Z,4.22
2023-04-28T19:49:26.854Z,3.90
2023-04-28T19:52:32.603Z,4.30
2023-04-28T19:55:38.414Z,4.45
2023-04-28T19:58:44.164Z,4.63
2023-04-28T20:01:50.362Z,3.83
2023-04-28T20:04:56.721Z,5.13
2023-04-28T20:08:02.724Z,4.47
2023-04-28T20:11:08.536Z,4.22
2023-04-28T20:14:14.389Z,4.55
2023-04-28T20:17:20.426Z,4.30
2023-04-28T20:20:26.420Z,5.75
2023-04-28T20:23:32.444Z,5.70
2023-04-28T20:26:38.770Z,4.55
2023-04-28T20:29:44.254Z,5.68
2023-04-28T20:32:50.391Z,5.07
2023-04-28T20:35:55.635Z,5.20
2023-04-28T20:39:00.887Z,5.57
2023-04-28T20:42:06.413Z,5.82
2023-04-28T20:45:12.286Z,5.07
2023-04-28T20:48:19.714Z,5.72
2023-04-28T20:51:25.673Z,5.18
2023-04-28T20:54:36.222Z,6.03
2023-04-28T20:57:42.216Z,5.82
2023-04-28T21:00:47.988Z,5.70
2023-04-28T21:03:53.735Z,5.13
2023-04-28T21:06:59.629Z,5.50
2023-04-28T21:10:05.544Z,5.95
2023-04-28T21:13:10.993Z,6.28
2023-04-28T21:16:20.945Z,7.10
2023-04-28T21:19:26.807Z,5.93
2023-04-28T21:22:32.278Z,6.45
2023-04-28T21:25:38.320Z,6.32
2023-04-28T21:28:43.796Z,6.65
2023-04-28T21:31:49.492Z,6.15
2023-04-28T21:34:55.767Z,6.47
2023-04-28T21:38:01.968Z,6.43
2023-04-28T21:41:08.006Z,6.57
2023-04-28T21:44:13.789Z,6.05
2023-04-28T21:47:19.268Z,6.63
2023-04-28T21:50:24.682Z,6.82
2023-04-28T21:53:30.431Z,7.03
2023-04-28T21:56:36.337Z,7.28
2023-04-28T21:59:41.829Z,6.30
2023-04-28T22:02:47.681Z,6.05
2023-04-28T22:05:53.104Z,6.00
2023-04-28T22:08:58.794Z,6.15
2023-04-28T22:12:04.464Z,7.05
2023-04-28T22:15:10.482Z,6.32
2023-04-28T22:18:17.508Z,6.40
2023-04-28T22:21:23.115Z,6.18
2023-04-28T22:24:28.867Z,5.78
2023-04-28T22:27:34.478Z,5.97
2023-04-28T22:30:39.995Z,5.60
2023-04-28T22:33:45.699Z,5.43
2023-04-28T22:36:51.886Z,5.93
2023-04-28T22:39:57.182Z,5.07
2023-04-28T22:43:03.140Z,5.38
2023-04-28T22:46:09.053Z,6.30
2023-04-28T22:49:14.327Z,6.07
2023-04-28T22:52:21.621Z,5.30
2023-04-28T22:55:26.981Z,6.18
2023-04-28T22:58:32.808Z,6.60
2023-04-28T23:01:38.815Z,6.10
2023-04-28T23:04:44.600Z,5.80
2023-04-28T23:07:50.360Z,5.68
2023-04-28T23:10:59.451Z,5.00
2023-04-28T23:14:05.585Z,5.57
2023-04-28T23:17:11.559Z,5.93
2023-04-28T23:20:17.056Z,6.22
2023-04-28T23:23:22.519Z,6.30
2023-04-28T23:26:28.020Z,6.25
2023-04-28T23:29:35.457Z,5.72
2023-04-28T23:32:40.992Z,5.95
2023-04-28T23:35:46.230Z,6.40
2023-04-28T23:38:51.779Z,5.57
2023-04-28T23:41:58.933Z,5.97
2023-04-28T23:45:05.071Z,6.32
2023-04-28T23:48:11.428Z,6.38
2023-04-28T23:51:17.238Z,6.25
2023-04-28T23:54:23.147Z,6.82
2023-04-28T23:57:29.078Z,6.03
